Hlavní strana
METAR-TAF:

METAR-TAF

Letiště :

Sikeston, Missouri, Spojené státy americké

zeměpisná šířka: 36-53-56N, zeměpisná délka: 089-33-42W, výška: 96 m

Aktuální stav počasí

Zpráva byla vytvořena před 13 minutami, v 05:15 UTC
Východojihovýchodní vítr 5 kt
Teplota 5°C
Vlhkost vzduchu 56%
Tlak 1020 hPa
Viditelnost: 16.1 km
Polojasno ve výšce 4700 ft

METAR: KSIK 240515Z AUTO 12005KT 10SM SCT047 05/M03 A3013 RMK AO2 TSNO

Čas: 23:28 (05:28 UTC)


TAF: chybějící

Stav a předpovědi počasí z více než 4 000 letišť (zprávy METAR a TAF).

Červené a žluté tečky na mapě představují dostupné meteorologické stanice.

Když kurzor umístíte na tečku, zobrazí se název stanice.

Pak kliknutím zobrazíte stav a předpověď počasí.

Chcete-li změnit mapu, kliknutím na zelené tlačítko se znaménkem +mapu přiblížíte, kliknutím na zelené tlačítko se znaménkem – mapu oddálíte a kliknutím na zelené šipky přejdete na sousední mapy.


METAR-TAF: